sensor_id;sensor_type;location;lat;lon;timestamp;pressure;altitude;pressure_sealevel;temperature;humidity
66484;BME280;53299;52.160;7.556;2022-11-15T00:00:47;100555.97;;;17.22;47.97
66484;BME280;53299;52.160;7.556;2022-11-15T00:03:17;100548.19;;;17.21;47.80
66484;BME280;53299;52.160;7.556;2022-11-15T00:05:43;100553.47;;;17.21;48.03
66484;BME280;53299;52.160;7.556;2022-11-15T00:08:08;100545.53;;;17.21;47.99
66484;BME280;53299;52.160;7.556;2022-11-15T00:10:34;100543.69;;;17.21;48.00
66484;BME280;53299;52.160;7.556;2022-11-15T00:12:59;100549.00;;;17.21;47.76
66484;BME280;53299;52.160;7.556;2022-11-15T00:15:24;100541.03;;;17.21;48.11
66484;BME280;53299;52.160;7.556;2022-11-15T00:17:50;100548.19;;;17.21;47.88
66484;BME280;53299;52.160;7.556;2022-11-15T00:20:16;100540.22;;;17.21;48.01
66484;BME280;53299;52.160;7.556;2022-11-15T00:22:42;100544.72;;;17.20;47.97
66484;BME280;53299;52.160;7.556;2022-11-15T00:25:07;100542.88;;;17.21;48.02
66484;BME280;53299;52.160;7.556;2022-11-15T00:27:33;100541.03;;;17.21;48.01
66484;BME280;53299;52.160;7.556;2022-11-15T00:29:58;100528.63;;;17.22;47.87
66484;BME280;53299;52.160;7.556;2022-11-15T00:32:23;100532.28;;;17.21;47.86
66484;BME280;53299;52.160;7.556;2022-11-15T00:34:48;100535.75;;;17.21;48.09
66484;BME280;53299;52.160;7.556;2022-11-15T00:37:14;100530.44;;;17.21;47.96
66484;BME280;53299;52.160;7.556;2022-11-15T00:39:39;100526.97;;;17.21;48.09
66484;BME280;53299;52.160;7.556;2022-11-15T00:42:04;100526.13;;;17.20;47.91
66484;BME280;53299;52.160;7.556;2022-11-15T00:44:29;100534.09;;;17.20;48.03
66484;BME280;53299;52.160;7.556;2022-11-15T00:46:55;100535.75;;;17.21;47.99
66484;BME280;53299;52.160;7.556;2022-11-15T00:49:20;100530.44;;;17.21;48.00
66484;BME280;53299;52.160;7.556;2022-11-15T00:51:45;100526.13;;;17.20;47.99
66484;BME280;53299;52.160;7.556;2022-11-15T00:54:10;100521.66;;;17.21;48.06
66484;BME280;53299;52.160;7.556;2022-11-15T00:56:36;100518.19;;;17.20;48.04
66484;BME280;53299;52.160;7.556;2022-11-15T00:59:01;100521.66;;;17.21;47.77
66484;BME280;53299;52.160;7.556;2022-11-15T01:01:26;100517.19;;;17.21;48.00
66484;BME280;53299;52.160;7.556;2022-11-15T01:03:51;100515.53;;;17.20;48.03
66484;BME280;53299;52.160;7.556;2022-11-15T01:06:17;100515.53;;;17.20;48.04
66484;BME280;53299;52.160;7.556;2022-11-15T01:08:42;100511.03;;;17.21;47.95
66484;BME280;53299;52.160;7.556;2022-11-15T01:11:10;100504.91;;;17.20;48.04
66484;BME280;53299;52.160;7.556;2022-11-15T01:13:36;100504.09;;;17.20;48.11
66484;BME280;53299;52.160;7.556;2022-11-15T01:16:07;100504.09;;;17.20;48.19
66484;BME280;53299;52.160;7.556;2022-11-15T01:18:32;100493.50;;;17.20;48.15
66484;BME280;53299;52.160;7.556;2022-11-15T01:20:57;100493.50;;;17.20;48.12
66484;BME280;53299;52.160;7.556;2022-11-15T01:23:22;100488.19;;;17.20;48.10
66484;BME280;53299;52.160;7.556;2022-11-15T01:25:48;100489.81;;;17.21;48.23
66484;BME280;53299;52.160;7.556;2022-11-15T01:28:13;100484.72;;;17.19;48.02
66484;BME280;53299;52.160;7.556;2022-11-15T01:30:38;100479.41;;;17.19;48.17
66484;BME280;53299;52.160;7.556;2022-11-15T01:33:03;100479.41;;;17.19;48.16
66484;BME280;53299;52.160;7.556;2022-11-15T01:35:29;100474.94;;;17.20;48.09
66484;BME280;53299;52.160;7.556;2022-11-15T01:37:54;100474.94;;;17.20;48.08
66484;BME280;53299;52.160;7.556;2022-11-15T01:40:19;100477.56;;;17.20;48.09
66484;BME280;53299;52.160;7.556;2022-11-15T01:42:45;100480.22;;;17.20;48.12
66484;BME280;53299;52.160;7.556;2022-11-15T01:45:14;100476.75;;;17.19;48.10
66484;BME280;53299;52.160;7.556;2022-11-15T01:47:43;100472.28;;;17.20;48.10
66484;BME280;53299;52.160;7.556;2022-11-15T01:50:13;100465.28;;;17.19;47.96
66484;BME280;53299;52.160;7.556;2022-11-15T01:52:39;100467.78;;;17.20;48.00
66484;BME280;53299;52.160;7.556;2022-11-15T01:55:35;100465.97;;;17.21;48.11
66484;BME280;53299;52.160;7.556;2022-11-15T01:58:02;100462.47;;;17.20;47.97
66484;BME280;53299;52.160;7.556;2022-11-15T02:00:29;100451.06;;;17.20;48.15
66484;BME280;53299;52.160;7.556;2022-11-15T02:02:54;100455.53;;;17.19;48.08
66484;BME280;53299;52.160;7.556;2022-11-15T02:05:20;100445.91;;;17.18;48.14
66484;BME280;53299;52.160;7.556;2022-11-15T02:07:45;100442.44;;;17.18;48.10
66484;BME280;53299;52.160;7.556;2022-11-15T02:10:21;100451.06;;;17.20;48.04
66484;BME280;53299;52.160;7.556;2022-11-15T02:12:47;100447.59;;;17.19;48.30
66484;BME280;53299;52.160;7.556;2022-11-15T02:15:13;100445.75;;;17.20;48.27
66484;BME280;53299;52.160;7.556;2022-11-15T02:28:47;100421.88;;;17.20;48.12
66484;BME280;53299;52.160;7.556;2022-11-15T02:31:23;100422.84;;;17.19;48.27
66484;BME280;53299;52.160;7.556;2022-11-15T02:39:11;100422.03;;;17.18;48.13
66484;BME280;53299;52.160;7.556;2022-11-15T02:41:52;100422.84;;;17.19;48.32
66484;BME280;53299;52.160;7.556;2022-11-15T02:44:24;100422.03;;;17.18;48.31
66484;BME280;53299;52.160;7.556;2022-11-15T02:46:58;100424.69;;;17.18;48.41
66484;BME280;53299;52.160;7.556;2022-11-15T02:49:27;100422.84;;;17.19;48.38
66484;BME280;53299;52.160;7.556;2022-11-15T02:51:54;100425.50;;;17.19;48.34
66484;BME280;53299;52.160;7.556;2022-11-15T02:54:25;100412.25;;;17.19;48.27
66484;BME280;53299;52.160;7.556;2022-11-15T02:56:55;100411.44;;;17.18;48.39
66484;BME280;53299;52.160;7.556;2022-11-15T03:04:57;100413.91;;;17.20;48.33
66484;BME280;53299;52.160;7.556;2022-11-15T03:07:40;100410.63;;;17.18;48.41
66484;BME280;53299;52.160;7.556;2022-11-15T03:10:24;100411.28;;;17.20;48.29
66484;BME280;53299;52.160;7.556;2022-11-15T03:12:56;100412.25;;;17.19;48.21
66484;BME280;53299;52.160;7.556;2022-11-15T03:15:32;100414.91;;;17.19;48.32
66484;BME280;53299;52.160;7.556;2022-11-15T03:18:15;100411.28;;;17.20;48.27
66484;BME280;53299;52.160;7.556;2022-11-15T03:20:43;100416.56;;;17.20;48.18
66484;BME280;53299;52.160;7.556;2022-11-15T03:23:10;100413.09;;;17.19;48.16
66484;BME280;53299;52.160;7.556;2022-11-15T03:25:39;100412.25;;;17.19;48.33
66484;BME280;53299;52.160;7.556;2022-11-15T03:28:06;100422.69;;;17.20;48.13
66484;BME280;53299;52.160;7.556;2022-11-15T03:30:36;100421.06;;;17.19;48.39
66484;BME280;53299;52.160;7.556;2022-11-15T03:33:02;100413.91;;;17.20;48.39
66484;BME280;53299;52.160;7.556;2022-11-15T03:35:33;100419.22;;;17.20;48.38
66484;BME280;53299;52.160;7.556;2022-11-15T03:38:15;100417.41;;;17.20;48.32
66484;BME280;53299;52.160;7.556;2022-11-15T03:40:45;100414.75;;;17.20;48.41
66484;BME280;53299;52.160;7.556;2022-11-15T03:46:06;100417.41;;;17.20;48.40
66484;BME280;53299;52.160;7.556;2022-11-15T03:48:41;100425.34;;;17.20;48.36
66484;BME280;53299;52.160;7.556;2022-11-15T03:51:08;100429.84;;;17.20;48.42
66484;BME280;53299;52.160;7.556;2022-11-15T03:53:34;100421.88;;;17.20;48.41
66484;BME280;53299;52.160;7.556;2022-11-15T03:55:59;100420.88;;;17.21;48.36
66484;BME280;53299;52.160;7.556;2022-11-15T03:58:24;100413.91;;;17.20;48.50
66484;BME280;53299;52.160;7.556;2022-11-15T04:00:50;100412.09;;;17.20;48.57
66484;BME280;53299;52.160;7.556;2022-11-15T04:03:15;100411.06;;;17.21;48.63
66484;BME280;53299;52.160;7.556;2022-11-15T04:05:40;100404.94;;;17.21;48.57
66484;BME280;53299;52.160;7.556;2022-11-15T04:08:05;100407.59;;;17.21;48.56
66484;BME280;53299;52.160;7.556;2022-11-15T04:10:31;100399.66;;;17.21;48.45
66484;BME280;53299;52.160;7.556;2022-11-15T04:12:56;100397.00;;;17.21;48.63
66484;BME280;53299;52.160;7.556;2022-11-15T04:15:23;100404.13;;;17.20;48.69
66484;BME280;53299;52.160;7.556;2022-11-15T04:17:50;100399.66;;;17.21;48.53
66484;BME280;53299;52.160;7.556;2022-11-15T04:20:22;100408.41;;;17.21;48.61
66484;BME280;53299;52.160;7.556;2022-11-15T04:22:47;100409.28;;;17.22;48.66
66484;BME280;53299;52.160;7.556;2022-11-15T04:25:13;100406.63;;;17.22;48.69
66484;BME280;53299;52.160;7.556;2022-11-15T04:27:38;100404.94;;;17.21;48.46
66484;BME280;53299;52.160;7.556;2022-11-15T04:30:03;100405.78;;;17.21;48.72
66484;BME280;53299;52.160;7.556;2022-11-15T04:32:29;100412.91;;;17.21;48.63
66484;BME280;53299;52.160;7.556;2022-11-15T04:34:54;100406.63;;;17.22;48.71
66484;BME280;53299;52.160;7.556;2022-11-15T04:37:19;100399.66;;;17.21;48.82
66484;BME280;53299;52.160;7.556;2022-11-15T04:39:45;100402.31;;;17.21;48.59
66484;BME280;53299;52.160;7.556;2022-11-15T04:42:10;100407.59;;;17.21;48.62
66484;BME280;53299;52.160;7.556;2022-11-15T04:44:35;100408.41;;;17.21;48.55
66484;BME280;53299;52.160;7.556;2022-11-15T04:47:01;100405.78;;;17.21;48.62
66484;BME280;53299;52.160;7.556;2022-11-15T04:49:26;100413.72;;;17.21;48.62
66484;BME280;53299;52.160;7.556;2022-11-15T04:51:52;100410.25;;;17.21;48.67
66484;BME280;53299;52.160;7.556;2022-11-15T04:54:17;100413.72;;;17.21;48.86
66484;BME280;53299;52.160;7.556;2022-11-15T04:56:42;100414.56;;;17.22;48.79
66484;BME280;53299;52.160;7.556;2022-11-15T04:59:07;100407.59;;;17.21;48.92
66484;BME280;53299;52.160;7.556;2022-11-15T05:01:33;100411.94;;;17.22;48.94
66484;BME280;53299;52.160;7.556;2022-11-15T05:03:58;100410.25;;;17.21;48.69
66484;BME280;53299;52.160;7.556;2022-11-15T05:06:23;100408.41;;;17.21;48.94
66484;BME280;53299;52.160;7.556;2022-11-15T05:08:48;100406.63;;;17.22;48.60
66484;BME280;53299;52.160;7.556;2022-11-15T05:11:14;100408.41;;;17.21;48.79
66484;BME280;53299;52.160;7.556;2022-11-15T05:13:39;100400.47;;;17.21;49.01
66484;BME280;53299;52.160;7.556;2022-11-15T05:16:04;100400.47;;;17.21;48.92
66484;BME280;53299;52.160;7.556;2022-11-15T05:18:30;100396.00;;;17.22;48.89
66484;BME280;53299;52.160;7.556;2022-11-15T05:20:55;100397.81;;;17.21;49.06
66484;BME280;53299;52.160;7.556;2022-11-15T05:23:20;100402.31;;;17.21;49.06
66484;BME280;53299;52.160;7.556;2022-11-15T05:25:45;100403.13;;;17.21;49.07
66484;BME280;53299;52.160;7.556;2022-11-15T05:28:11;100397.00;;;17.21;48.93
66484;BME280;53299;52.160;7.556;2022-11-15T05:30:36;100404.94;;;17.21;48.94
66484;BME280;53299;52.160;7.556;2022-11-15T05:33:01;100396.84;;;17.22;49.41
66484;BME280;53299;52.160;7.556;2022-11-15T05:35:40;100399.66;;;17.21;49.14
66484;BME280;53299;52.160;7.556;2022-11-15T05:38:07;100394.34;;;17.21;49.08
66484;BME280;53299;52.160;7.556;2022-11-15T05:40:33;100390.88;;;17.20;49.01
66484;BME280;53299;52.160;7.556;2022-11-15T05:42:59;100383.72;;;17.21;49.39
66484;BME280;53299;52.160;7.556;2022-11-15T05:45:27;100380.09;;;17.22;49.19
66484;BME280;53299;52.160;7.556;2022-11-15T05:47:54;100384.56;;;17.21;49.28
66484;BME280;53299;52.160;7.556;2022-11-15T05:50:21;100379.25;;;17.21;49.16
66484;BME280;53299;52.160;7.556;2022-11-15T05:52:47;100375.78;;;17.21;49.22
66484;BME280;53299;52.160;7.556;2022-11-15T05:55:12;100375.78;;;17.21;49.14
66484;BME280;53299;52.160;7.556;2022-11-15T05:57:38;100376.59;;;17.21;49.30
66484;BME280;53299;52.160;7.556;2022-11-15T06:00:04;100372.31;;;17.20;49.30
66484;BME280;53299;52.160;7.556;2022-11-15T06:02:30;100372.31;;;17.20;49.27
66484;BME280;53299;52.160;7.556;2022-11-15T06:04:55;100375.78;;;17.21;49.44
66484;BME280;53299;52.160;7.556;2022-11-15T06:07:20;100381.09;;;17.21;49.30
66484;BME280;53299;52.160;7.556;2022-11-15T06:09:45;100385.41;;;17.22;49.39
66484;BME280;53299;52.160;7.556;2022-11-15T06:12:11;100385.41;;;17.22;49.29
66484;BME280;53299;52.160;7.556;2022-11-15T06:14:36;100384.56;;;17.21;49.37
66484;BME280;53299;52.160;7.556;2022-11-15T06:17:01;100388.06;;;17.22;49.50
66484;BME280;53299;52.160;7.556;2022-11-15T06:19:27;100384.56;;;17.21;49.20
66484;BME280;53299;52.160;7.556;2022-11-15T06:21:52;100382.91;;;17.20;48.99
66484;BME280;53299;52.160;7.556;2022-11-15T06:24:17;100390.72;;;17.22;49.55
66484;BME280;53299;52.160;7.556;2022-11-15T06:26:42;100389.03;;;17.21;49.54
66484;BME280;53299;52.160;7.556;2022-11-15T06:29:07;100389.03;;;17.21;49.50
66484;BME280;53299;52.160;7.556;2022-11-15T06:31:34;100382.75;;;17.22;49.44
66484;BME280;53299;52.160;7.556;2022-11-15T06:33:59;100396.00;;;17.22;49.51
66484;BME280;53299;52.160;7.556;2022-11-15T06:36:24;100395.16;;;17.21;49.59
66484;BME280;53299;52.160;7.556;2022-11-15T06:38:49;100390.72;;;17.22;49.45
66484;BME280;53299;52.160;7.556;2022-11-15T06:41:15;100399.47;;;17.22;49.46
66484;BME280;53299;52.160;7.556;2022-11-15T06:43:40;100396.84;;;17.22;49.60
66484;BME280;53299;52.160;7.556;2022-11-15T06:46:07;100398.66;;;17.22;49.65
66484;BME280;53299;52.160;7.556;2022-11-15T06:48:33;100400.47;;;17.21;49.66
66484;BME280;53299;52.160;7.556;2022-11-15T06:51:00;100403.97;;;17.22;49.72
66484;BME280;53299;52.160;7.556;2022-11-15T06:53:26;100403.97;;;17.22;49.74
66484;BME280;53299;52.160;7.556;2022-11-15T06:55:52;100406.63;;;17.22;49.65
66484;BME280;53299;52.160;7.556;2022-11-15T06:58:17;100414.38;;;17.23;49.56
66484;BME280;53299;52.160;7.556;2022-11-15T07:00:43;100413.56;;;17.23;49.71
66484;BME280;53299;52.160;7.556;2022-11-15T07:03:08;100407.44;;;17.22;49.68
66484;BME280;53299;52.160;7.556;2022-11-15T07:05:34;100409.28;;;17.22;49.80
66484;BME280;53299;52.160;7.556;2022-11-15T07:08:00;100414.38;;;17.23;49.74
66484;BME280;53299;52.160;7.556;2022-11-15T07:10:26;100416.22;;;17.23;49.89
66484;BME280;53299;52.160;7.556;2022-11-15T07:12:52;100419.69;;;17.23;49.86
66484;BME280;53299;52.160;7.556;2022-11-15T07:15:19;100421.53;;;17.23;49.67
66484;BME280;53299;52.160;7.556;2022-11-15T07:17:44;100420.69;;;17.22;49.81
66484;BME280;53299;52.160;7.556;2022-11-15T07:20:10;100424.19;;;17.23;49.78
66484;BME280;53299;52.160;7.556;2022-11-15T07:22:36;100428.47;;;17.24;49.75
66484;BME280;53299;52.160;7.556;2022-11-15T07:25:01;100420.50;;;17.24;49.89
66484;BME280;53299;52.160;7.556;2022-11-15T07:27:26;100428.47;;;17.24;49.86
66484;BME280;53299;52.160;7.556;2022-11-15T07:29:52;100424.19;;;17.23;49.90
66484;BME280;53299;52.160;7.556;2022-11-15T07:32:17;100431.13;;;17.24;50.03
66484;BME280;53299;52.160;7.556;2022-11-15T07:34:42;100431.13;;;17.24;50.04
66484;BME280;53299;52.160;7.556;2022-11-15T07:37:08;100436.44;;;17.24;49.97
66484;BME280;53299;52.160;7.556;2022-11-15T07:39:33;100435.59;;;17.23;50.01
66484;BME280;53299;52.160;7.556;2022-11-15T07:41:59;100441.72;;;17.24;49.95
66484;BME280;53299;52.160;7.556;2022-11-15T07:44:25;100431.13;;;17.24;50.10
66484;BME280;53299;52.160;7.556;2022-11-15T07:46:50;100434.78;;;17.23;50.01
66484;BME280;53299;52.160;7.556;2022-11-15T07:49:15;100434.78;;;17.23;50.11
66484;BME280;53299;52.160;7.556;2022-11-15T07:51:40;100429.47;;;17.23;49.98
66484;BME280;53299;52.160;7.556;2022-11-15T07:54:06;100430.28;;;17.23;50.16
66484;BME280;53299;52.160;7.556;2022-11-15T07:56:31;100432.13;;;17.23;50.14
66484;BME280;53299;52.160;7.556;2022-11-15T07:58:56;100430.28;;;17.23;50.17
66484;BME280;53299;52.160;7.556;2022-11-15T08:01:22;100427.84;;;17.22;50.19
66484;BME280;53299;52.160;7.556;2022-11-15T08:03:47;100435.59;;;17.23;50.08
66484;BME280;53299;52.160;7.556;2022-11-15T08:06:12;100442.75;;;17.23;50.02
66484;BME280;53299;52.160;7.556;2022-11-15T08:08:37;100441.72;;;17.24;50.35
66484;BME280;53299;52.160;7.556;2022-11-15T08:11:03;100432.13;;;17.23;50.22
66484;BME280;53299;52.160;7.556;2022-11-15T08:13:28;100434.78;;;17.23;50.35
66484;BME280;53299;52.160;7.556;2022-11-15T08:16:00;100434.78;;;17.23;50.22
66484;BME280;53299;52.160;7.556;2022-11-15T08:18:26;100430.28;;;17.23;50.37
66484;BME280;53299;52.160;7.556;2022-11-15T08:20:51;100423.34;;;17.22;50.30
66484;BME280;53299;52.160;7.556;2022-11-15T08:23:16;100430.28;;;17.23;50.42
66484;BME280;53299;52.160;7.556;2022-11-15T08:25:42;100430.28;;;17.23;50.44
66484;BME280;53299;52.160;7.556;2022-11-15T08:28:08;100430.28;;;17.23;50.51
66484;BME280;53299;52.160;7.556;2022-11-15T08:30:36;100425.81;;;17.24;50.60
66484;BME280;53299;52.160;7.556;2022-11-15T08:33:03;100425.81;;;17.24;50.50
66484;BME280;53299;52.160;7.556;2022-11-15T08:35:28;100418.88;;;17.23;50.40
66484;BME280;53299;52.160;7.556;2022-11-15T08:37:54;100417.84;;;17.24;50.54
66484;BME280;53299;52.160;7.556;2022-11-15T08:40:20;100427.66;;;17.23;50.58
66484;BME280;53299;52.160;7.556;2022-11-15T08:42:48;100417.84;;;17.24;50.64
66484;BME280;53299;52.160;7.556;2022-11-15T08:45:14;100412.56;;;17.24;50.27
66484;BME280;53299;52.160;7.556;2022-11-15T08:47:39;100409.09;;;17.23;50.62
66484;BME280;53299;52.160;7.556;2022-11-15T08:50:05;100409.91;;;17.24;50.42
66484;BME280;53299;52.160;7.556;2022-11-15T08:52:31;100409.91;;;17.24;50.49
66484;BME280;53299;52.160;7.556;2022-11-15T08:54:56;100407.25;;;17.24;50.47
66484;BME280;53299;52.160;7.556;2022-11-15T08:57:22;100413.41;;;17.24;50.57
66484;BME280;53299;52.160;7.556;2022-11-15T08:59:47;100403.63;;;17.25;50.61
66484;BME280;53299;52.160;7.556;2022-11-15T09:02:13;100401.94;;;17.24;50.72
66484;BME280;53299;52.160;7.556;2022-11-15T09:04:40;100408.91;;;17.25;50.78
66484;BME280;53299;52.160;7.556;2022-11-15T09:07:05;100401.94;;;17.24;50.73
66484;BME280;53299;52.160;7.556;2022-11-15T09:09:31;100397.28;;;17.26;50.86
66484;BME280;53299;52.160;7.556;2022-11-15T09:11:56;100395.66;;;17.25;50.96
66484;BME280;53299;52.160;7.556;2022-11-15T09:14:21;100397.50;;;17.24;50.93
66484;BME280;53299;52.160;7.556;2022-11-15T09:16:46;100405.44;;;17.24;50.94
66484;BME280;53299;52.160;7.556;2022-11-15T09:19:12;100406.25;;;17.25;50.85
66484;BME280;53299;52.160;7.556;2022-11-15T09:21:37;100403.63;;;17.25;50.94
66484;BME280;53299;52.160;7.556;2022-11-15T09:24:02;100403.63;;;17.25;51.09
66484;BME280;53299;52.160;7.556;2022-11-15T09:26:27;100395.66;;;17.25;51.00
66484;BME280;53299;52.160;7.556;2022-11-15T09:28:53;100398.31;;;17.25;51.24
66484;BME280;53299;52.160;7.556;2022-11-15T09:31:18;100396.47;;;17.25;51.00
66484;BME280;53299;52.160;7.556;2022-11-15T09:33:44;100392.19;;;17.24;51.03
66484;BME280;53299;52.160;7.556;2022-11-15T09:36:10;100393.00;;;17.25;50.99
66484;BME280;53299;52.160;7.556;2022-11-15T09:38:35;100390.50;;;17.23;51.18
66484;BME280;53299;52.160;7.556;2022-11-15T09:44:23;100394.84;;;17.24;51.04
66484;BME280;53299;52.160;7.556;2022-11-15T09:49:22;100383.38;;;17.24;51.26
66484;BME280;53299;52.160;7.556;2022-11-15T09:51:53;100381.75;;;17.23;51.13
66484;BME280;53299;52.160;7.556;2022-11-15T09:54:36;100381.75;;;17.23;51.30
66484;BME280;53299;52.160;7.556;2022-11-15T09:57:11;100379.09;;;17.23;51.19
66484;BME280;53299;52.160;7.556;2022-11-15T10:00:28;100387.84;;;17.23;51.25
66484;BME280;53299;52.160;7.556;2022-11-15T10:03:09;100385.41;;;17.22;51.24
66484;BME280;53299;52.160;7.556;2022-11-15T10:05:56;100387.03;;;17.23;51.13
66484;BME280;53299;52.160;7.556;2022-11-15T10:11:07;100397.66;;;17.23;51.13
66484;BME280;53299;52.160;7.556;2022-11-15T10:13:35;100385.41;;;17.22;50.94
66484;BME280;53299;52.160;7.556;2022-11-15T10:16:17;100385.41;;;17.22;51.14
66484;BME280;53299;52.160;7.556;2022-11-15T10:18:57;100383.72;;;17.21;51.18
66484;BME280;53299;52.160;7.556;2022-11-15T10:24:12;100381.91;;;17.21;51.00
66484;BME280;53299;52.160;7.556;2022-11-15T10:26:39;100373.94;;;17.21;51.06
66484;BME280;53299;52.160;7.556;2022-11-15T10:29:10;100377.44;;;17.22;51.04
66484;BME280;53299;52.160;7.556;2022-11-15T10:31:39;100371.28;;;17.21;51.05
66484;BME280;53299;52.160;7.556;2022-11-15T10:34:18;100370.47;;;17.21;50.90
66484;BME280;53299;52.160;7.556;2022-11-15T10:36:45;100373.94;;;17.21;51.10
66484;BME280;53299;52.160;7.556;2022-11-15T10:39:12;100367.81;;;17.21;51.07
66484;BME280;53299;52.160;7.556;2022-11-15T10:41:40;100378.44;;;17.21;51.02
66484;BME280;53299;52.160;7.556;2022-11-15T10:46:45;100374.78;;;17.22;50.84
66484;BME280;53299;52.160;7.556;2022-11-15T10:49:15;100372.97;;;17.22;51.04
66484;BME280;53299;52.160;7.556;2022-11-15T10:51:53;100360.88;;;17.20;51.00
66484;BME280;53299;52.160;7.556;2022-11-15T10:54:41;100367.81;;;17.21;51.06
66484;BME280;53299;52.160;7.556;2022-11-15T10:57:20;100360.69;;;17.21;50.97
66484;BME280;53299;52.160;7.556;2022-11-15T10:59:49;100350.91;;;17.22;50.98
66484;BME280;53299;52.160;7.556;2022-11-15T11:02:35;100348.28;;;17.22;51.09
66484;BME280;53299;52.160;7.556;2022-11-15T11:05:04;100354.56;;;17.21;50.97
66484;BME280;53299;52.160;7.556;2022-11-15T11:07:32;100351.91;;;17.21;50.97
66484;BME280;53299;52.160;7.556;2022-11-15T11:10:19;100342.97;;;17.22;51.01
66484;BME280;53299;52.160;7.556;2022-11-15T11:12:45;100333.19;;;17.22;51.02
66484;BME280;53299;52.160;7.556;2022-11-15T11:15:15;100334.16;;;17.21;51.02
66484;BME280;53299;52.160;7.556;2022-11-15T11:18:13;100326.19;;;17.21;51.19
66484;BME280;53299;52.160;7.556;2022-11-15T11:20:51;100320.06;;;17.21;51.07
66484;BME280;53299;52.160;7.556;2022-11-15T11:23:42;100316.44;;;17.22;50.95
66484;BME280;53299;52.160;7.556;2022-11-15T11:26:18;100309.47;;;17.21;51.12
66484;BME280;53299;52.160;7.556;2022-11-15T11:34:09;100309.47;;;17.21;51.15
66484;BME280;53299;52.160;7.556;2022-11-15T11:39:26;100304.16;;;17.21;51.13
66484;BME280;53299;52.160;7.556;2022-11-15T11:42:13;100304.16;;;17.21;51.07
66484;BME280;53299;52.160;7.556;2022-11-15T11:45:15;100303.19;;;17.22;51.22
66484;BME280;53299;52.160;7.556;2022-11-15T11:47:55;100297.03;;;17.21;51.04
66484;BME280;53299;52.160;7.556;2022-11-15T11:50:27;100298.84;;;17.21;51.07
66484;BME280;53299;52.160;7.556;2022-11-15T11:52:59;100301.50;;;17.21;51.03
66484;BME280;53299;52.160;7.556;2022-11-15T11:55:32;100292.75;;;17.20;51.10
66484;BME280;53299;52.160;7.556;2022-11-15T11:58:11;100288.25;;;17.21;51.11
66484;BME280;53299;52.160;7.556;2022-11-15T12:00:41;100286.41;;;17.21;51.26
66484;BME280;53299;52.160;7.556;2022-11-15T12:05:46;100275.00;;;17.21;51.14
66484;BME280;53299;52.160;7.556;2022-11-15T12:13:58;100275.00;;;17.21;51.07
66484;BME280;53299;52.160;7.556;2022-11-15T12:16:29;100272.34;;;17.21;51.04
66484;BME280;53299;52.160;7.556;2022-11-15T12:18:57;100256.41;;;17.21;51.05
66484;BME280;53299;52.160;7.556;2022-11-15T12:24:24;100253.78;;;17.21;51.07
66484;BME280;53299;52.160;7.556;2022-11-15T12:27:44;100255.59;;;17.20;51.06
66484;BME280;53299;52.160;7.556;2022-11-15T12:29:46;100247.66;;;17.20;50.97
66484;BME280;53299;52.160;7.556;2022-11-15T12:32:34;100247.66;;;17.20;50.96
66484;BME280;53299;52.160;7.556;2022-11-15T12:35:02;100245.81;;;17.21;50.94
66484;BME280;53299;52.160;7.556;2022-11-15T12:42:56;100236.22;;;17.20;50.80
66484;BME280;53299;52.160;7.556;2022-11-15T12:47:53;100236.22;;;17.20;50.89
66484;BME280;53299;52.160;7.556;2022-11-15T12:59:00;100222.13;;;17.19;50.74
66484;BME280;53299;52.160;7.556;2022-11-15T13:07:09;100230.91;;;17.20;50.58
66484;BME280;53299;52.160;7.556;2022-11-15T13:09:55;100234.38;;;17.20;50.61
66484;BME280;53299;52.160;7.556;2022-11-15T13:17:47;100222.97;;;17.20;50.60
66484;BME280;53299;52.160;7.556;2022-11-15T13:22:43;100219.50;;;17.19;50.54
66484;BME280;53299;52.160;7.556;2022-11-15T13:26:00;100222.97;;;17.20;50.57
66484;BME280;53299;52.160;7.556;2022-11-15T13:30:40;100206.22;;;17.19;50.39
66484;BME280;53299;52.160;7.556;2022-11-15T13:33:16;100196.44;;;17.20;50.45
66484;BME280;53299;52.160;7.556;2022-11-15T13:35:46;100195.63;;;17.19;50.53
66484;BME280;53299;52.160;7.556;2022-11-15T13:40:50;100187.66;;;17.19;50.50
66484;BME280;53299;52.160;7.556;2022-11-15T13:49:07;100183.19;;;17.20;50.39
66484;BME280;53299;52.160;7.556;2022-11-15T13:56:30;100171.91;;;17.18;50.31
66484;BME280;53299;52.160;7.556;2022-11-15T13:58:57;100165.59;;;17.19;50.40
66484;BME280;53299;52.160;7.556;2022-11-15T14:01:22;100162.94;;;17.19;50.37
66484;BME280;53299;52.160;7.556;2022-11-15T14:03:59;100157.63;;;17.19;50.30
66484;BME280;53299;52.160;7.556;2022-11-15T14:06:28;100146.22;;;17.18;50.31
66484;BME280;53299;52.160;7.556;2022-11-15T14:11:34;100141.72;;;17.19;50.29
66484;BME280;53299;52.160;7.556;2022-11-15T14:16:39;100131.13;;;17.19;50.33
66484;BME280;53299;52.160;7.556;2022-11-15T14:19:06;100125.00;;;17.18;50.30
66484;BME280;53299;52.160;7.556;2022-11-15T14:21:32;100127.47;;;17.20;50.28
66484;BME280;53299;52.160;7.556;2022-11-15T14:24:18;100119.88;;;17.17;50.24
66484;BME280;53299;52.160;7.556;2022-11-15T14:26:43;100129.50;;;17.18;50.03
66484;BME280;53299;52.160;7.556;2022-11-15T14:29:28;100123.16;;;17.19;50.01
66484;BME280;53299;52.160;7.556;2022-11-15T14:32:12;100122.34;;;17.18;50.13
66484;BME280;53299;52.160;7.556;2022-11-15T14:34:37;100119.69;;;17.18;49.68
66484;BME280;53299;52.160;7.556;2022-11-15T14:37:03;100124.19;;;17.18;50.01
66484;BME280;53299;52.160;7.556;2022-11-15T14:39:28;100121.53;;;17.18;49.93
66484;BME280;53299;52.160;7.556;2022-11-15T14:41:53;100118.88;;;17.18;50.09
66484;BME280;53299;52.160;7.556;2022-11-15T14:44:18;100124.19;;;17.18;50.14
66484;BME280;53299;52.160;7.556;2022-11-15T14:46:44;100117.88;;;17.19;50.17